sensor_id;sensor_type;location;lat;lon;timestamp;pressure;altitude;pressure_sealevel;temperature;humidity
55733;BME280;41637;52.364;9.910;2023-08-20T00:02:18;101327.19;;;22.49;98.21
55733;BME280;41637;52.364;9.910;2023-08-20T00:04:49;101332.72;;;22.45;98.51
55733;BME280;41637;52.364;9.910;2023-08-20T00:07:17;101333.10;;;22.40;98.78
55733;BME280;41637;52.364;9.910;2023-08-20T00:09:44;101333.48;;;22.37;98.82
55733;BME280;41637;52.364;9.910;2023-08-20T00:12:11;101337.39;;;22.35;99.02
55733;BME280;41637;52.364;9.910;2023-08-20T00:14:57;101347.77;;;22.32;99.07
55733;BME280;41637;52.364;9.910;2023-08-20T00:17:32;101351.75;;;22.26;99.78
55733;BME280;41637;52.364;9.910;2023-08-20T00:19:59;101348.58;;;22.21;100.00
55733;BME280;41637;52.364;9.910;2023-08-20T00:22:26;101345.69;;;22.20;100.00
55733;BME280;41637;52.364;9.910;2023-08-20T00:24:54;101350.94;;;22.18;99.99
55733;BME280;41637;52.364;9.910;2023-08-20T00:27:21;101354.12;;;22.17;99.98
55733;BME280;41637;52.364;9.910;2023-08-20T00:29:47;101358.59;;;22.17;99.96
55733;BME280;41637;52.364;9.910;2023-08-20T00:32:15;101356.64;;;22.16;99.98
55733;BME280;41637;52.364;9.910;2023-08-20T00:34:41;101351.48;;;22.15;99.97
55733;BME280;41637;52.364;9.910;2023-08-20T00:37:08;101356.73;;;22.14;100.00
55733;BME280;41637;52.364;9.910;2023-08-20T00:39:34;101359.41;;;22.12;100.00
55733;BME280;41637;52.364;9.910;2023-08-20T00:42:01;101362.83;;;22.09;100.00
55733;BME280;41637;52.364;9.910;2023-08-20T00:44:27;101369.70;;;22.04;100.00
55733;BME280;41637;52.364;9.910;2023-08-20T00:46:54;101376.31;;;22.00;100.00
55733;BME280;41637;52.364;9.910;2023-08-20T00:49:22;101382.41;;;21.97;100.00
55733;BME280;41637;52.364;9.910;2023-08-20T00:51:50;101382.55;;;21.94;100.00
55733;BME280;41637;52.364;9.910;2023-08-20T00:54:17;101373.39;;;21.90;100.00
55733;BME280;41637;52.364;9.910;2023-08-20T00:56:44;101381.21;;;21.90;100.00
55733;BME280;41637;52.364;9.910;2023-08-20T00:59:11;101385.92;;;21.89;100.00
55733;BME280;41637;52.364;9.910;2023-08-20T01:01:37;101383.14;;;21.87;100.00
55733;BME280;41637;52.364;9.910;2023-08-20T01:04:04;101382.56;;;21.86;100.00
55733;BME280;41637;52.364;9.910;2023-08-20T01:10:03;101386.05;;;21.81;100.00
55733;BME280;41637;52.364;9.910;2023-08-20T01:12:31;101385.23;;;21.78;100.00
55733;BME280;41637;52.364;9.910;2023-08-20T01:14:58;101386.37;;;21.76;100.00
55733;BME280;41637;52.364;9.910;2023-08-20T01:17:24;101382.83;;;21.72;100.00
55733;BME280;41637;52.364;9.910;2023-08-20T01:19:51;101384.40;;;21.68;100.00
55733;BME280;41637;52.364;9.910;2023-08-20T01:22:42;101383.93;;;21.63;100.00
55733;BME280;41637;52.364;9.910;2023-08-20T01:28:21;101384.36;;;21.54;100.00
55733;BME280;41637;52.364;9.910;2023-08-20T01:30:48;101379.26;;;21.50;100.00
55733;BME280;41637;52.364;9.910;2023-08-20T01:33:16;101378.54;;;21.51;100.00
55733;BME280;41637;52.364;9.910;2023-08-20T01:35:42;101380.85;;;21.53;100.00
55733;BME280;41637;52.364;9.910;2023-08-20T01:38:09;101385.25;;;21.52;100.00
55733;BME280;41637;52.364;9.910;2023-08-20T01:40:35;101385.90;;;21.50;100.00
55733;BME280;41637;52.364;9.910;2023-08-20T01:43:02;101387.64;;;21.49;100.00
55733;BME280;41637;52.364;9.910;2023-08-20T01:45:28;101391.59;;;21.45;100.00
55733;BME280;41637;52.364;9.910;2023-08-20T01:47:55;101395.38;;;21.40;100.00
55733;BME280;41637;52.364;9.910;2023-08-20T01:50:21;101397.59;;;21.36;100.00
55733;BME280;41637;52.364;9.910;2023-08-20T01:52:48;101396.36;;;21.32;100.00
55733;BME280;41637;52.364;9.910;2023-08-20T01:55:14;101395.80;;;21.28;100.00
55733;BME280;41637;52.364;9.910;2023-08-20T01:57:41;101394.71;;;21.25;100.00
55733;BME280;41637;52.364;9.910;2023-08-20T02:00:07;101388.61;;;21.22;100.00
55733;BME280;41637;52.364;9.910;2023-08-20T02:02:35;101390.44;;;21.16;100.00
55733;BME280;41637;52.364;9.910;2023-08-20T02:05:01;101389.58;;;21.12;100.00
55733;BME280;41637;52.364;9.910;2023-08-20T02:07:28;101389.84;;;21.08;100.00
55733;BME280;41637;52.364;9.910;2023-08-20T02:09:54;101387.80;;;21.03;100.00
55733;BME280;41637;52.364;9.910;2023-08-20T02:12:21;101388.20;;;20.98;100.00
55733;BME280;41637;52.364;9.910;2023-08-20T02:14:47;101385.56;;;20.92;100.00
55733;BME280;41637;52.364;9.910;2023-08-20T02:17:14;101382.41;;;20.88;100.00
55733;BME280;41637;52.364;9.910;2023-08-20T02:19:40;101376.52;;;20.83;100.00
55733;BME280;41637;52.364;9.910;2023-08-20T02:22:07;101378.64;;;20.78;100.00
55733;BME280;41637;52.364;9.910;2023-08-20T02:24:33;101379.77;;;20.72;100.00
55733;BME280;41637;52.364;9.910;2023-08-20T02:27:00;101384.73;;;20.67;100.00
55733;BME280;41637;52.364;9.910;2023-08-20T02:29:27;101384.09;;;20.62;100.00
55733;BME280;41637;52.364;9.910;2023-08-20T02:31:53;101388.73;;;20.57;100.00
55733;BME280;41637;52.364;9.910;2023-08-20T02:34:19;101391.16;;;20.51;100.00
55733;BME280;41637;52.364;9.910;2023-08-20T02:36:46;101393.14;;;20.48;100.00
55733;BME280;41637;52.364;9.910;2023-08-20T02:39:15;101389.45;;;20.43;100.00
55733;BME280;41637;52.364;9.910;2023-08-20T02:41:43;101390.72;;;20.41;100.00
55733;BME280;41637;52.364;9.910;2023-08-20T02:44:09;101388.78;;;20.35;100.00
55733;BME280;41637;52.364;9.910;2023-08-20T02:46:36;101388.60;;;20.33;100.00
55733;BME280;41637;52.364;9.910;2023-08-20T02:49:04;101391.63;;;20.28;100.00
55733;BME280;41637;52.364;9.910;2023-08-20T02:51:31;101397.73;;;20.23;100.00
55733;BME280;41637;52.364;9.910;2023-08-20T02:53:57;101396.07;;;20.20;100.00
55733;BME280;41637;52.364;9.910;2023-08-20T02:56:23;101396.96;;;20.17;100.00
55733;BME280;41637;52.364;9.910;2023-08-20T02:58:50;101398.98;;;20.15;100.00
55733;BME280;41637;52.364;9.910;2023-08-20T03:01:18;101398.29;;;20.12;100.00
55733;BME280;41637;52.364;9.910;2023-08-20T03:03:45;101398.23;;;20.10;100.00
55733;BME280;41637;52.364;9.910;2023-08-20T03:06:11;101395.27;;;20.08;100.00
55733;BME280;41637;52.364;9.910;2023-08-20T03:08:38;101394.80;;;20.05;100.00
55733;BME280;41637;52.364;9.910;2023-08-20T03:11:05;101399.21;;;20.03;100.00
55733;BME280;41637;52.364;9.910;2023-08-20T03:13:31;101398.52;;;20.02;100.00
55733;BME280;41637;52.364;9.910;2023-08-20T03:15:58;101398.73;;;20.01;100.00
55733;BME280;41637;52.364;9.910;2023-08-20T03:18:25;101404.52;;;20.01;100.00
55733;BME280;41637;52.364;9.910;2023-08-20T03:20:51;101408.83;;;20.00;100.00
55733;BME280;41637;52.364;9.910;2023-08-20T03:23:17;101410.55;;;19.98;100.00
55733;BME280;41637;52.364;9.910;2023-08-20T03:25:44;101407.66;;;19.94;100.00
55733;BME280;41637;52.364;9.910;2023-08-20T03:28:10;101402.13;;;19.91;100.00
55733;BME280;41637;52.364;9.910;2023-08-20T03:30:37;101404.12;;;19.90;100.00
55733;BME280;41637;52.364;9.910;2023-08-20T03:33:04;101403.67;;;19.89;100.00
55733;BME280;41637;52.364;9.910;2023-08-20T03:35:30;101400.66;;;19.88;100.00
55733;BME280;41637;52.364;9.910;2023-08-20T03:37:57;101402.33;;;19.86;100.00
55733;BME280;41637;52.364;9.910;2023-08-20T03:40:23;101404.08;;;19.85;100.00
55733;BME280;41637;52.364;9.910;2023-08-20T03:42:50;101408.63;;;19.86;100.00
55733;BME280;41637;52.364;9.910;2023-08-20T03:45:16;101411.23;;;19.87;100.00
55733;BME280;41637;52.364;9.910;2023-08-20T03:47:43;101408.99;;;19.87;100.00
55733;BME280;41637;52.364;9.910;2023-08-20T03:50:10;101407.81;;;19.88;100.00
55733;BME280;41637;52.364;9.910;2023-08-20T03:52:37;101410.96;;;19.90;100.00
55733;BME280;41637;52.364;9.910;2023-08-20T03:55:04;101408.46;;;19.91;100.00
55733;BME280;41637;52.364;9.910;2023-08-20T03:57:30;101405.70;;;19.93;100.00
55733;BME280;41637;52.364;9.910;2023-08-20T03:59:57;101407.95;;;19.93;100.00
55733;BME280;41637;52.364;9.910;2023-08-20T04:02:23;101412.02;;;19.92;100.00
55733;BME280;41637;52.364;9.910;2023-08-20T04:04:50;101419.16;;;19.90;100.00
55733;BME280;41637;52.364;9.910;2023-08-20T04:07:18;101426.54;;;19.89;100.00
55733;BME280;41637;52.364;9.910;2023-08-20T04:09:44;101433.41;;;19.89;100.00
55733;BME280;41637;52.364;9.910;2023-08-20T04:12:11;101439.81;;;19.88;100.00
55733;BME280;41637;52.364;9.910;2023-08-20T04:14:37;101441.59;;;19.88;100.00
55733;BME280;41637;52.364;9.910;2023-08-20T04:17:04;101439.71;;;19.88;100.00
55733;BME280;41637;52.364;9.910;2023-08-20T04:19:30;101445.63;;;19.90;100.00
55733;BME280;41637;52.364;9.910;2023-08-20T04:21:56;101448.99;;;19.90;100.00
55733;BME280;41637;52.364;9.910;2023-08-20T04:24:23;101455.03;;;19.90;100.00
55733;BME280;41637;52.364;9.910;2023-08-20T04:26:50;101455.25;;;19.89;100.00
55733;BME280;41637;52.364;9.910;2023-08-20T04:29:16;101460.65;;;19.88;100.00
55733;BME280;41637;52.364;9.910;2023-08-20T04:31:42;101461.96;;;19.88;100.00
55733;BME280;41637;52.364;9.910;2023-08-20T04:34:09;101458.15;;;19.89;100.00
55733;BME280;41637;52.364;9.910;2023-08-20T04:36:36;101456.43;;;19.91;100.00
55733;BME280;41637;52.364;9.910;2023-08-20T04:39:02;101451.79;;;19.92;100.00
55733;BME280;41637;52.364;9.910;2023-08-20T04:41:31;101448.17;;;19.93;100.00
55733;BME280;41637;52.364;9.910;2023-08-20T04:43:57;101447.83;;;19.94;100.00
55733;BME280;41637;52.364;9.910;2023-08-20T04:46:26;101447.02;;;19.96;100.00
55733;BME280;41637;52.364;9.910;2023-08-20T04:48:54;101444.91;;;19.98;100.00
55733;BME280;41637;52.364;9.910;2023-08-20T04:51:21;101450.89;;;20.00;100.00
55733;BME280;41637;52.364;9.910;2023-08-20T04:53:47;101453.83;;;20.02;100.00
55733;BME280;41637;52.364;9.910;2023-08-20T04:56:14;101463.80;;;20.04;100.00
55733;BME280;41637;52.364;9.910;2023-08-20T04:58:40;101465.77;;;20.06;100.00
55733;BME280;41637;52.364;9.910;2023-08-20T05:01:07;101467.12;;;20.08;100.00
55733;BME280;41637;52.364;9.910;2023-08-20T05:03:35;101472.00;;;20.10;100.00
55733;BME280;41637;52.364;9.910;2023-08-20T05:06:01;101473.48;;;20.11;100.00
55733;BME280;41637;52.364;9.910;2023-08-20T05:08:29;101475.53;;;20.14;100.00
55733;BME280;41637;52.364;9.910;2023-08-20T05:10:55;101475.13;;;20.19;100.00
55733;BME280;41637;52.364;9.910;2023-08-20T05:13:22;101480.52;;;20.24;100.00
55733;BME280;41637;52.364;9.910;2023-08-20T05:15:50;101482.86;;;20.29;100.00
55733;BME280;41637;52.364;9.910;2023-08-20T05:18:16;101477.66;;;20.37;100.00
55733;BME280;41637;52.364;9.910;2023-08-20T05:20:43;101475.96;;;20.47;100.00
55733;BME280;41637;52.364;9.910;2023-08-20T05:23:09;101474.40;;;20.56;100.00
55733;BME280;41637;52.364;9.910;2023-08-20T05:25:36;101479.29;;;20.66;100.00
55733;BME280;41637;52.364;9.910;2023-08-20T05:28:02;101482.43;;;20.74;99.82
55733;BME280;41637;52.364;9.910;2023-08-20T05:30:29;101488.62;;;20.82;99.42
55733;BME280;41637;52.364;9.910;2023-08-20T05:32:55;101482.33;;;20.92;99.22
55733;BME280;41637;52.364;9.910;2023-08-20T05:35:22;101484.19;;;21.04;98.73
55733;BME280;41637;52.364;9.910;2023-08-20T05:37:48;101492.22;;;21.15;98.15
55733;BME280;41637;52.364;9.910;2023-08-20T05:40:15;101488.59;;;21.24;97.71
55733;BME280;41637;52.364;9.910;2023-08-20T05:42:42;101485.92;;;21.35;97.51
55733;BME280;41637;52.364;9.910;2023-08-20T05:45:09;101484.74;;;21.44;96.94
55733;BME280;41637;52.364;9.910;2023-08-20T05:47:35;101486.07;;;21.49;96.08
55733;BME280;41637;52.364;9.910;2023-08-20T05:50:03;101486.22;;;21.47;95.77
55733;BME280;41637;52.364;9.910;2023-08-20T05:52:30;101481.27;;;21.47;95.65
55733;BME280;41637;52.364;9.910;2023-08-20T05:54:56;101469.35;;;21.50;95.44
55733;BME280;41637;52.364;9.910;2023-08-20T05:57:23;101458.46;;;21.56;95.57
55733;BME280;41637;52.364;9.910;2023-08-20T05:59:49;101457.90;;;21.66;95.48
55733;BME280;41637;52.364;9.910;2023-08-20T06:02:16;101453.39;;;21.73;94.83
55733;BME280;41637;52.364;9.910;2023-08-20T06:04:44;101443.77;;;21.78;94.09
55733;BME280;41637;52.364;9.910;2023-08-20T06:07:11;101440.84;;;21.76;93.05
55733;BME280;41637;52.364;9.910;2023-08-20T06:09:37;101437.45;;;21.81;92.80
55733;BME280;41637;52.364;9.910;2023-08-20T06:12:04;101432.24;;;21.87;92.74
55733;BME280;41637;52.364;9.910;2023-08-20T06:14:30;101439.44;;;21.97;92.81
55733;BME280;41637;52.364;9.910;2023-08-20T06:16:57;101439.69;;;22.07;92.61
55733;BME280;41637;52.364;9.910;2023-08-20T06:19:23;101438.77;;;22.15;92.40
55733;BME280;41637;52.364;9.910;2023-08-20T06:21:50;101439.44;;;22.23;91.68
55733;BME280;41637;52.364;9.910;2023-08-20T06:24:16;101437.83;;;22.32;91.04
55733;BME280;41637;52.364;9.910;2023-08-20T06:26:43;101440.80;;;22.39;90.17
55733;BME280;41637;52.364;9.910;2023-08-20T06:29:11;101446.23;;;22.45;89.28
55733;BME280;41637;52.364;9.910;2023-08-20T06:31:37;101444.65;;;22.52;88.81
55733;BME280;41637;52.364;9.910;2023-08-20T06:34:04;101446.96;;;22.61;87.96
55733;BME280;41637;52.364;9.910;2023-08-20T06:36:30;101445.44;;;22.71;87.17
55733;BME280;41637;52.364;9.910;2023-08-20T06:38:57;101445.22;;;22.83;86.64
55733;BME280;41637;52.364;9.910;2023-08-20T06:41:23;101453.25;;;22.97;86.15
55733;BME280;41637;52.364;9.910;2023-08-20T06:43:50;101453.98;;;23.05;85.00
55733;BME280;41637;52.364;9.910;2023-08-20T06:46:16;101456.51;;;23.07;84.44
55733;BME280;41637;52.364;9.910;2023-08-20T06:48:42;101460.98;;;23.07;84.10
55733;BME280;41637;52.364;9.910;2023-08-20T06:51:19;101469.83;;;23.05;83.65
55733;BME280;41637;52.364;9.910;2023-08-20T06:53:46;101473.01;;;22.98;82.78
55733;BME280;41637;52.364;9.910;2023-08-20T06:56:13;101467.83;;;22.94;82.94
55733;BME280;41637;52.364;9.910;2023-08-20T06:58:41;101474.81;;;22.95;82.68
55733;BME280;41637;52.364;9.910;2023-08-20T07:01:07;101466.80;;;23.02;82.44
55733;BME280;41637;52.364;9.910;2023-08-20T07:03:41;101464.30;;;23.10;81.45
55733;BME280;41637;52.364;9.910;2023-08-20T07:06:09;101470.73;;;23.17;80.60
55733;BME280;41637;52.364;9.910;2023-08-20T07:08:37;101476.56;;;23.27;80.30
55733;BME280;41637;52.364;9.910;2023-08-20T07:11:06;101483.59;;;23.33;78.69
55733;BME280;41637;52.364;9.910;2023-08-20T07:13:32;101477.84;;;23.37;78.32
55733;BME280;41637;52.364;9.910;2023-08-20T07:15:59;101469.13;;;23.46;78.08
55733;BME280;41637;52.364;9.910;2023-08-20T07:18:26;101472.75;;;23.57;77.97
55733;BME280;41637;52.364;9.910;2023-08-20T07:20:52;101476.98;;;23.70;77.36
55733;BME280;41637;52.364;9.910;2023-08-20T07:23:19;101477.42;;;23.81;76.87
55733;BME280;41637;52.364;9.910;2023-08-20T07:25:45;101483.60;;;23.91;74.30
55733;BME280;41637;52.364;9.910;2023-08-20T07:28:13;101476.94;;;24.01;73.73
55733;BME280;41637;52.364;9.910;2023-08-20T07:30:39;101477.59;;;24.11;73.76
55733;BME280;41637;52.364;9.910;2023-08-20T07:33:06;101470.87;;;24.20;73.29
55733;BME280;41637;52.364;9.910;2023-08-20T07:35:33;101470.68;;;24.29;73.47
55733;BME280;41637;52.364;9.910;2023-08-20T07:38:01;101470.43;;;24.39;73.12
55733;BME280;41637;52.364;9.910;2023-08-20T07:40:28;101474.85;;;24.47;72.51
55733;BME280;41637;52.364;9.910;2023-08-20T07:42:54;101480.14;;;24.55;72.13
55733;BME280;41637;52.364;9.910;2023-08-20T07:45:22;101481.36;;;24.64;71.89
55733;BME280;41637;52.364;9.910;2023-08-20T07:47:49;101480.13;;;24.70;69.97
55733;BME280;41637;52.364;9.910;2023-08-20T07:50:15;101476.27;;;24.76;69.36
55733;BME280;41637;52.364;9.910;2023-08-20T07:52:42;101473.77;;;24.85;69.06
55733;BME280;41637;52.364;9.910;2023-08-20T07:55:08;101475.33;;;24.92;69.18
55733;BME280;41637;52.364;9.910;2023-08-20T07:57:35;101475.30;;;25.04;69.54
55733;BME280;41637;52.364;9.910;2023-08-20T08:00:02;101473.04;;;25.14;69.16
55733;BME280;41637;52.364;9.910;2023-08-20T08:02:30;101472.15;;;25.24;68.65
55733;BME280;41637;52.364;9.910;2023-08-20T08:04:57;101476.23;;;25.31;68.27
55733;BME280;41637;52.364;9.910;2023-08-20T08:07:23;101483.13;;;25.40;67.58
55733;BME280;41637;52.364;9.910;2023-08-20T08:09:50;101490.02;;;25.49;67.03
55733;BME280;41637;52.364;9.910;2023-08-20T08:12:16;101490.52;;;25.56;66.57
55733;BME280;41637;52.364;9.910;2023-08-20T08:14:42;101492.42;;;25.67;65.83
55733;BME280;41637;52.364;9.910;2023-08-20T08:17:09;101490.51;;;25.65;64.10
55733;BME280;41637;52.364;9.910;2023-08-20T08:19:35;101492.61;;;25.63;64.83
55733;BME280;41637;52.364;9.910;2023-08-20T08:22:02;101490.35;;;25.65;65.03
55733;BME280;41637;52.364;9.910;2023-08-20T08:24:29;101491.73;;;25.68;65.45
55733;BME280;41637;52.364;9.910;2023-08-20T08:26:56;101489.42;;;25.72;64.94
55733;BME280;41637;52.364;9.910;2023-08-20T08:29:22;101492.08;;;25.74;64.98
55733;BME280;41637;52.364;9.910;2023-08-20T08:31:48;101484.57;;;25.81;65.01
55733;BME280;41637;52.364;9.910;2023-08-20T08:34:15;101485.94;;;25.87;65.37
55733;BME280;41637;52.364;9.910;2023-08-20T08:36:41;101486.23;;;25.93;65.07
55733;BME280;41637;52.364;9.910;2023-08-20T08:39:08;101487.42;;;25.98;64.60
55733;BME280;41637;52.364;9.910;2023-08-20T08:41:35;101492.07;;;26.01;64.46
55733;BME280;41637;52.364;9.910;2023-08-20T08:44:07;101493.60;;;26.11;64.08
55733;BME280;41637;52.364;9.910;2023-08-20T08:46:35;101493.84;;;26.18;63.61
55733;BME280;41637;52.364;9.910;2023-08-20T08:49:03;101490.27;;;26.28;63.46
55733;BME280;41637;52.364;9.910;2023-08-20T08:51:30;101486.29;;;26.43;63.93
55733;BME280;41637;52.364;9.910;2023-08-20T08:53:58;101482.58;;;26.57;63.70
55733;BME280;41637;52.364;9.910;2023-08-20T08:56:25;101487.02;;;26.59;62.01
55733;BME280;41637;52.364;9.910;2023-08-20T08:58:51;101484.69;;;26.60;61.58
55733;BME280;41637;52.364;9.910;2023-08-20T09:01:18;101487.11;;;26.66;61.00
55733;BME280;41637;52.364;9.910;2023-08-20T09:03:45;101486.42;;;26.69;59.90
55733;BME280;41637;52.364;9.910;2023-08-20T09:06:11;101489.14;;;26.70;60.10
55733;BME280;41637;52.364;9.910;2023-08-20T09:08:38;101493.22;;;26.70;60.55
55733;BME280;41637;52.364;9.910;2023-08-20T09:11:04;101496.79;;;26.74;60.40
55733;BME280;41637;52.364;9.910;2023-08-20T09:13:41;101492.20;;;26.82;60.37
55733;BME280;41637;52.364;9.910;2023-08-20T09:16:11;101492.58;;;26.93;60.35
55733;BME280;41637;52.364;9.910;2023-08-20T09:18:40;101495.17;;;27.03;59.83
55733;BME280;41637;52.364;9.910;2023-08-20T09:21:11;101492.61;;;27.13;59.39
55733;BME280;41637;52.364;9.910;2023-08-20T09:23:39;101495.39;;;27.17;57.88
55733;BME280;41637;52.364;9.910;2023-08-20T09:26:06;101491.41;;;27.22;57.40
55733;BME280;41637;52.364;9.910;2023-08-20T09:28:44;101497.16;;;27.30;57.26
55733;BME280;41637;52.364;9.910;2023-08-20T09:31:12;101494.52;;;27.38;56.79
55733;BME280;41637;52.364;9.910;2023-08-20T09:33:59;101493.56;;;27.47;57.13
55733;BME280;41637;52.364;9.910;2023-08-20T09:36:34;101495.27;;;27.56;56.73
55733;BME280;41637;52.364;9.910;2023-08-20T09:39:02;101492.92;;;27.56;55.59
55733;BME280;41637;52.364;9.910;2023-08-20T09:41:29;101486.70;;;27.52;55.05
55733;BME280;41637;52.364;9.910;2023-08-20T09:43:57;101487.14;;;27.57;55.59
55733;BME280;41637;52.364;9.910;2023-08-20T09:46:26;101481.09;;;27.61;55.78
55733;BME280;41637;52.364;9.910;2023-08-20T09:48:57;101482.36;;;27.65;53.74
55733;BME280;41637;52.364;9.910;2023-08-20T09:51:25;101485.13;;;27.62;51.30
55733;BME280;41637;52.364;9.910;2023-08-20T09:53:58;101475.60;;;27.63;52.19
55733;BME280;41637;52.364;9.910;2023-08-20T09:56:38;101474.19;;;27.73;51.97
55733;BME280;41637;52.364;9.910;2023-08-20T09:59:06;101470.66;;;27.80;51.76
55733;BME280;41637;52.364;9.910;2023-08-20T10:01:33;101470.27;;;27.83;52.18
55733;BME280;41637;52.364;9.910;2023-08-20T10:03:59;101473.33;;;27.84;50.81
55733;BME280;41637;52.364;9.910;2023-08-20T10:06:26;101476.01;;;27.85;50.98
55733;BME280;41637;52.364;9.910;2023-08-20T10:08:54;101472.35;;;27.84;50.51
55733;BME280;41637;52.364;9.910;2023-08-20T10:11:21;101471.60;;;27.88;50.80
55733;BME280;41637;52.364;9.910;2023-08-20T10:13:48;101466.59;;;28.00;51.63
55733;BME280;41637;52.364;9.910;2023-08-20T10:16:17;101469.81;;;28.13;50.91
55733;BME280;41637;52.364;9.910;2023-08-20T10:18:48;101474.71;;;28.18;49.74
55733;BME280;41637;52.364;9.910;2023-08-20T10:21:15;101473.56;;;28.15;48.80
55733;BME280;41637;52.364;9.910;2023-08-20T10:23:41;101473.13;;;28.20;49.35
55733;BME280;41637;52.364;9.910;2023-08-20T10:26:11;101471.27;;;28.26;49.03
55733;BME280;41637;52.364;9.910;2023-08-20T10:28:37;101467.52;;;28.38;49.42
55733;BME280;41637;52.364;9.910;2023-08-20T10:33:47;101464.40;;;28.57;48.51
55733;BME280;41637;52.364;9.910;2023-08-20T10:36:16;101462.35;;;28.67;49.35
55733;BME280;41637;52.364;9.910;2023-08-20T10:38:46;101467.31;;;28.73;47.75
55733;BME280;41637;52.364;9.910;2023-08-20T10:41:13;101467.25;;;28.72;47.77
55733;BME280;41637;52.364;9.910;2023-08-20T10:43:46;101469.00;;;28.71;47.02
55733;BME280;41637;52.364;9.910;2023-08-20T10:46:25;101470.48;;;28.66;46.73
55733;BME280;41637;52.364;9.910;2023-08-20T10:48:52;101469.59;;;28.71;47.33
55733;BME280;41637;52.364;9.910;2023-08-20T10:51:24;101470.42;;;28.83;48.13
55733;BME280;41637;52.364;9.910;2023-08-20T10:56:57;101470.70;;;28.97;46.75
55733;BME280;41637;52.364;9.910;2023-08-20T10:59:26;101471.80;;;29.10;47.00
55733;BME280;41637;52.364;9.910;2023-08-20T11:01:57;101478.09;;;29.09;45.63
55733;BME280;41637;52.364;9.910;2023-08-20T11:04:28;101480.61;;;29.04;45.43
55733;BME280;41637;52.364;9.910;2023-08-20T11:06:58;101481.25;;;28.96;45.21
55733;BME280;41637;52.364;9.910;2023-08-20T11:09:29;101476.41;;;29.02;45.82
55733;BME280;41637;52.364;9.910;2023-08-20T11:11:57;101472.30;;;29.21;46.04
55733;BME280;41637;52.364;9.910;2023-08-20T11:14:24;101477.01;;;29.32;43.86
55733;BME280;41637;52.364;9.910;2023-08-20T11:16:51;101478.48;;;29.40;44.34
55733;BME280;41637;52.364;9.910;2023-08-20T11:19:22;101481.61;;;29.55;44.54
55733;BME280;41637;52.364;9.910;2023-08-20T11:21:50;101482.80;;;29.57;44.33
55733;BME280;41637;52.364;9.910;2023-08-20T11:24:17;101481.24;;;29.53;43.11
55733;BME280;41637;52.364;9.910;2023-08-20T11:26:46;101479.56;;;29.51;43.36
55733;BME280;41637;52.364;9.910;2023-08-20T11:29:15;101482.30;;;29.58;43.38
55733;BME280;41637;52.364;9.910;2023-08-20T11:31:46;101477.23;;;29.70;43.26
55733;BME280;41637;52.364;9.910;2023-08-20T11:34:13;101478.42;;;29.84;43.19
55733;BME280;41637;52.364;9.910;2023-08-20T11:36:40;101476.60;;;29.86;42.56
55733;BME280;41637;52.364;9.910;2023-08-20T11:39:07;101476.31;;;29.81;42.71
55733;BME280;41637;52.364;9.910;2023-08-20T11:41:39;101478.34;;;29.81;43.22
55733;BME280;41637;52.364;9.910;2023-08-20T11:44:08;101474.73;;;29.93;43.02
55733;BME280;41637;52.364;9.910;2023-08-20T11:46:42;101471.20;;;30.03;42.49
55733;BME280;41637;52.364;9.910;2023-08-20T11:49:10;101470.33;;;30.14;42.66
55733;BME280;41637;52.364;9.910;2023-08-20T11:51:42;101470.69;;;30.31;42.33
55733;BME280;41637;52.364;9.910;2023-08-20T11:54:10;101468.61;;;30.46;41.38
55733;BME280;41637;52.364;9.910;2023-08-20T11:56:43;101469.85;;;30.68;41.41
55733;BME280;41637;52.364;9.910;2023-08-20T11:59:11;101463.17;;;30.95;41.18
55733;BME280;41637;52.364;9.910;2023-08-20T12:01:38;101460.77;;;31.27;40.57
55733;BME280;41637;52.364;9.910;2023-08-20T12:04:06;101462.08;;;31.68;39.88
55733;BME280;41637;52.364;9.910;2023-08-20T12:06:35;101463.24;;;32.02;38.08
55733;BME280;41637;52.364;9.910;2023-08-20T12:09:18;101459.34;;;32.30;37.58
55733;BME280;41637;52.364;9.910;2023-08-20T12:11:50;101464.20;;;32.29;35.65
55733;BME280;41637;52.364;9.910;2023-08-20T12:14:19;101458.09;;;32.33;36.15
55733;BME280;41637;52.364;9.910;2023-08-20T12:16:46;101457.09;;;32.59;36.56
55733;BME280;41637;52.364;9.910;2023-08-20T12:19:13;101451.04;;;33.03;36.96
55733;BME280;41637;52.364;9.910;2023-08-20T12:21:40;101448.30;;;33.51;35.10
55733;BME280;41637;52.364;9.910;2023-08-20T12:24:10;101455.38;;;33.79;34.62
55733;BME280;41637;52.364;9.910;2023-08-20T12:26:37;101459.70;;;33.87;33.93
55733;BME280;41637;52.364;9.910;2023-08-20T12:29:03;101453.42;;;33.63;34.21
55733;BME280;41637;52.364;9.910;2023-08-20T12:31:34;101449.36;;;33.67;34.59
55733;BME280;41637;52.364;9.910;2023-08-20T12:34:01;101449.92;;;33.86;34.44
55733;BME280;41637;52.364;9.910;2023-08-20T12:36:27;101446.30;;;34.11;34.05
55733;BME280;41637;52.364;9.910;2023-08-20T12:38:54;101443.59;;;34.32;33.55
55733;BME280;41637;52.364;9.910;2023-08-20T12:41:21;101443.02;;;34.59;33.53
55733;BME280;41637;52.364;9.910;2023-08-20T12:43:47;101445.39;;;34.99;33.88
55733;BME280;41637;52.364;9.910;2023-08-20T12:46:14;101441.83;;;35.32;32.67
55733;BME280;41637;52.364;9.910;2023-08-20T12:48:40;101438.70;;;35.56;31.78
55733;BME280;41637;52.364;9.910;2023-08-20T12:51:07;101435.62;;;35.87;31.51
55733;BME280;41637;52.364;9.910;2023-08-20T12:53:34;101444.80;;;36.02;30.83
55733;BME280;41637;52.364;9.910;2023-08-20T12:56:04;101439.11;;;35.76;30.84
55733;BME280;41637;52.364;9.910;2023-08-20T12:58:30;101436.75;;;35.68;31.43
55733;BME280;41637;52.364;9.910;2023-08-20T13:00:57;101438.04;;;35.59;31.29